Archival Weather

Al Ahsa

Al Ahsa, Saudi Arabia (OEAH)

Report from: Friday, May 26, 2023 4:00 PM +03
Current time: Monday, July 22, 2024 1:07 PM +03

Current weather – Weather history – Daily summaries
Weather forecast

Temperature42.0°C (107.6°F)
Heat index39.1°C (102.3°F)
Dew point4.0°C (39.2°F)
Winds Calm
Clouds Sky clear
Altimeter29.71 in.Hg (1006 mB)
Relative humidity10 %
Density altitude3,387 ft. (1,032 m)
Remarks Ceiling and visibility OK
No significant changes expected in the next two hours
Flight conditions Visual Meteorological Conditions
Raw dataOEAH 261300Z 00000KT CAVOK 42/04 Q1006 NOSIG
An error has occurred. This application may no longer respond until reloaded. Reload 🗙